createdAt,value
2022-11-19T00:03:04.172Z,64.83
2022-11-19T00:06:33.033Z,64.81
2022-11-19T00:10:01.957Z,64.77
2022-11-19T00:13:29.394Z,64.85
2022-11-19T00:16:59.081Z,64.73
2022-11-19T00:20:27.810Z,64.68
2022-11-19T00:24:01.736Z,64.76
2022-11-19T00:27:32.046Z,64.91
2022-11-19T00:31:04.243Z,64.85
2022-11-19T00:34:58.532Z,64.96
2022-11-19T00:38:25.695Z,64.92
2022-11-19T00:41:52.319Z,64.94
2022-11-19T00:45:19.211Z,64.80
2022-11-19T00:48:47.598Z,64.77
2022-11-19T00:52:14.660Z,64.81
2022-11-19T00:55:41.879Z,64.65
2022-11-19T00:59:08.464Z,64.57
2022-11-19T01:02:36.321Z,64.56
2022-11-19T01:06:08.369Z,64.93
2022-11-19T01:09:59.276Z,65.05
2022-11-19T01:13:36.572Z,64.94
2022-11-19T01:17:03.376Z,65.25
2022-11-19T01:20:30.037Z,65.06
2022-11-19T01:24:05.846Z,65.15
2022-11-19T01:27:36.699Z,65.25
2022-11-19T01:31:16.751Z,65.32
2022-11-19T01:34:44.423Z,65.13
2022-11-19T01:38:21.551Z,65.29
2022-11-19T01:41:51.754Z,65.11
2022-11-19T01:45:31.151Z,65.70
2022-11-19T01:49:04.157Z,65.27
2022-11-19T01:52:30.920Z,65.29
2022-11-19T01:56:04.164Z,65.36
2022-11-19T01:59:32.716Z,65.44
2022-11-19T02:03:01.224Z,65.64
2022-11-19T02:06:28.179Z,65.65
2022-11-19T02:09:55.138Z,65.57
2022-11-19T02:13:27.072Z,65.73
2022-11-19T02:17:05.662Z,65.33
2022-11-19T02:20:55.986Z,65.47
2022-11-19T02:24:43.203Z,65.50
2022-11-19T02:28:30.628Z,65.41
2022-11-19T02:32:02.716Z,65.60
2022-11-19T02:35:38.968Z,65.77
2022-11-19T02:39:10.636Z,65.65
2022-11-19T02:42:45.182Z,65.35
2022-11-19T02:46:16.044Z,65.46
2022-11-19T02:49:46.003Z,65.32
2022-11-19T02:53:13.359Z,65.36
2022-11-19T02:56:53.222Z,65.68
2022-11-19T03:00:38.087Z,65.45
2022-11-19T03:04:22.435Z,65.65
2022-11-19T03:07:50.869Z,65.39
2022-11-19T03:11:23.755Z,65.61
2022-11-19T03:15:15.886Z,65.93
2022-11-19T03:18:47.908Z,65.84
2022-11-19T03:22:20.967Z,66.00
2022-11-19T03:25:51.828Z,65.89
2022-11-19T03:29:19.354Z,66.08
2022-11-19T03:32:51.691Z,66.03
2022-11-19T03:36:23.249Z,66.41
2022-11-19T03:39:51.452Z,66.34
2022-11-19T03:43:22.702Z,66.34
2022-11-19T03:46:54.008Z,66.69
2022-11-19T03:50:26.574Z,66.78
2022-11-19T03:53:54.881Z,66.68
2022-11-19T03:57:24.881Z,66.92
2022-11-19T04:00:51.357Z,66.91
2022-11-19T04:04:35.808Z,67.19
2022-11-19T04:08:02.703Z,67.26
2022-11-19T04:11:29.100Z,67.28
2022-11-19T04:14:56.083Z,67.46
2022-11-19T04:18:22.728Z,67.65
2022-11-19T04:21:49.555Z,67.61
2022-11-19T04:25:17.087Z,67.59
2022-11-19T04:28:43.643Z,67.58
2022-11-19T04:32:10.542Z,67.42
2022-11-19T04:35:37.342Z,67.56
2022-11-19T04:39:03.801Z,67.53
2022-11-19T04:42:30.445Z,67.49
2022-11-19T04:45:57.559Z,67.47
2022-11-19T04:49:24.378Z,67.52
2022-11-19T04:52:50.971Z,67.65
2022-11-19T04:56:17.972Z,67.49
2022-11-19T04:59:44.340Z,67.55
2022-11-19T05:03:11.372Z,67.70
2022-11-19T05:06:38.466Z,67.60
2022-11-19T05:10:05.768Z,67.62
2022-11-19T05:13:32.934Z,67.60
2022-11-19T05:16:59.887Z,67.69
2022-11-19T05:20:26.539Z,67.65
2022-11-19T05:23:53.473Z,67.78
2022-11-19T05:27:20.297Z,67.78
2022-11-19T05:30:46.885Z,67.87
2022-11-19T05:34:13.862Z,67.54
2022-11-19T05:37:41.001Z,67.75
2022-11-19T05:41:07.739Z,67.88
2022-11-19T05:44:34.431Z,68.10
2022-11-19T05:48:01.361Z,68.13
2022-11-19T05:51:28.167Z,67.94
2022-11-19T05:54:54.839Z,68.10
2022-11-19T05:58:21.532Z,68.07
2022-11-19T06:01:48.322Z,67.95
2022-11-19T06:05:15.400Z,68.02
2022-11-19T06:08:41.848Z,68.17
2022-11-19T06:12:08.968Z,68.02
2022-11-19T06:15:35.694Z,68.00
2022-11-19T06:19:02.007Z,68.13
2022-11-19T06:22:28.824Z,68.04
2022-11-19T06:25:57.221Z,68.07
2022-11-19T06:29:24.373Z,68.22
2022-11-19T06:32:50.883Z,68.30
2022-11-19T06:36:17.884Z,68.10
2022-11-19T06:39:44.355Z,68.27
2022-11-19T06:43:11.056Z,68.18
2022-11-19T06:46:38.694Z,68.29
2022-11-19T06:50:06.334Z,68.28
2022-11-19T06:53:33.233Z,68.22
2022-11-19T06:57:00.860Z,68.26
2022-11-19T07:00:28.023Z,68.17
2022-11-19T07:03:54.925Z,68.37
2022-11-19T07:07:24.524Z,68.29
2022-11-19T07:10:51.700Z,68.37
2022-11-19T07:14:18.558Z,68.34
2022-11-19T07:17:44.927Z,68.47
2022-11-19T07:21:11.747Z,68.70
2022-11-19T07:24:38.533Z,68.76
2022-11-19T07:28:05.436Z,68.96
2022-11-19T07:31:35.228Z,69.06
2022-11-19T07:35:02.210Z,69.02
2022-11-19T07:38:34.125Z,69.14
2022-11-19T07:42:21.824Z,69.07
2022-11-19T07:45:52.047Z,68.95
2022-11-19T07:49:19.148Z,68.96
2022-11-19T07:52:47.743Z,68.86
2022-11-19T07:56:14.480Z,68.98
2022-11-19T07:59:41.483Z,68.87
2022-11-19T08:03:08.744Z,68.82
2022-11-19T08:06:37.535Z,68.93
2022-11-19T08:10:07.160Z,68.75
2022-11-19T08:13:34.358Z,68.84
2022-11-19T08:17:18.427Z,68.78
2022-11-19T08:20:51.840Z,68.90
2022-11-19T08:24:21.258Z,68.86
2022-11-19T08:27:47.923Z,69.00
2022-11-19T08:31:22.760Z,69.06
2022-11-19T08:34:49.528Z,69.14
2022-11-19T08:38:16.275Z,69.13
2022-11-19T08:42:00.414Z,69.19
2022-11-19T08:45:27.239Z,69.31
2022-11-19T08:48:54.104Z,69.33
2022-11-19T08:52:21.059Z,69.38
2022-11-19T08:55:56.452Z,69.37
2022-11-19T08:59:23.553Z,69.45
2022-11-19T09:02:50.196Z,69.43
2022-11-19T09:06:17.867Z,69.59
2022-11-19T09:09:44.503Z,69.48
2022-11-19T09:13:11.530Z,69.51
2022-11-19T09:16:38.215Z,69.60
2022-11-19T09:20:05.430Z,69.59
2022-11-19T09:23:32.520Z,69.54
2022-11-19T09:27:02.254Z,69.65
2022-11-19T09:30:31.144Z,69.85
2022-11-19T09:33:57.886Z,69.66
2022-11-19T09:37:24.426Z,69.61
2022-11-19T09:40:55.010Z,69.60
2022-11-19T09:44:45.325Z,69.83
2022-11-19T09:48:33.571Z,69.70
2022-11-19T09:52:07.223Z,69.93
2022-11-19T09:55:33.867Z,69.84
2022-11-19T09:59:09.040Z,69.88
2022-11-19T10:02:36.391Z,69.88
2022-11-19T10:06:24.177Z,69.93
2022-11-19T10:10:04.433Z,70.09
2022-11-19T10:13:47.078Z,70.10
2022-11-19T10:17:28.025Z,70.11
2022-11-19T10:21:01.338Z,70.16
2022-11-19T10:24:43.627Z,70.11
2022-11-19T10:28:17.548Z,70.31
2022-11-19T10:31:47.683Z,70.20
2022-11-19T10:35:21.644Z,70.29
2022-11-19T10:38:55.310Z,70.29
2022-11-19T10:42:26.944Z,70.17
2022-11-19T10:45:55.200Z,70.14
2022-11-19T10:49:22.080Z,70.07
2022-11-19T10:52:53.319Z,70.02
2022-11-19T10:56:23.980Z,69.93
2022-11-19T10:59:52.075Z,69.86
2022-11-19T11:03:26.258Z,69.81
2022-11-19T11:06:58.617Z,69.74
2022-11-19T11:10:42.968Z,69.79
2022-11-19T11:14:32.627Z,69.82
2022-11-19T11:18:07.684Z,69.83
2022-11-19T11:21:38.506Z,69.88
2022-11-19T11:25:14.918Z,69.99
2022-11-19T11:28:58.437Z,70.03
2022-11-19T11:32:32.854Z,70.30
2022-11-19T11:36:02.894Z,70.34
2022-11-19T11:39:34.238Z,70.44
2022-11-19T11:43:01.465Z,70.50
2022-11-19T11:46:35.313Z,70.51
2022-11-19T11:50:10.101Z,70.48
2022-11-19T11:53:38.325Z,70.57
2022-11-19T11:57:19.680Z,70.69
2022-11-19T12:00:47.793Z,70.70
2022-11-19T12:04:16.326Z,70.65
2022-11-19T12:08:05.495Z,70.65
2022-11-19T12:11:57.784Z,70.80
2022-11-19T12:15:34.839Z,70.81
2022-11-19T12:19:17.338Z,70.84
2022-11-19T12:22:57.992Z,70.67
2022-11-19T12:26:35.324Z,70.85
2022-11-19T12:30:07.321Z,70.82
2022-11-19T12:33:54.172Z,70.87
2022-11-19T12:37:39.252Z,70.87
2022-11-19T12:41:20.550Z,71.12
2022-11-19T12:45:00.523Z,71.11
2022-11-19T12:48:44.248Z,70.96
2022-11-19T12:52:38.901Z,70.94
2022-11-19T12:56:10.503Z,71.19
2022-11-19T12:59:51.224Z,71.01
2022-11-19T13:03:21.732Z,71.02
2022-11-19T13:06:56.423Z,70.98
2022-11-19T13:10:27.579Z,70.92
2022-11-19T13:14:00.170Z,70.91
2022-11-19T13:17:31.690Z,70.96
2022-11-19T13:21:03.224Z,71.06
2022-11-19T13:24:35.268Z,71.02
2022-11-19T13:28:13.881Z,71.03
2022-11-19T13:31:54.497Z,70.89
2022-11-19T13:35:29.254Z,71.03
2022-11-19T13:39:00.643Z,71.11
2022-11-19T13:42:58.956Z,71.30
2022-11-19T13:46:40.944Z,71.35
2022-11-19T13:50:16.342Z,71.59
2022-11-19T13:53:46.652Z,71.60
2022-11-19T13:57:30.473Z,71.63
2022-11-19T14:01:21.776Z,71.86
2022-11-19T14:05:02.816Z,71.61
2022-11-19T14:08:48.336Z,71.77
2022-11-19T14:12:50.999Z,71.71
2022-11-19T14:16:51.857Z,71.75
2022-11-19T14:21:02.637Z,71.65
2022-11-19T14:25:17.218Z,71.69
2022-11-19T14:28:49.382Z,71.93
2022-11-19T14:32:30.955Z,72.00
2022-11-19T14:35:59.121Z,71.97
2022-11-19T14:39:31.030Z,72.06
2022-11-19T14:43:47.705Z,72.15
2022-11-19T14:47:38.965Z,72.08
2022-11-19T14:51:12.176Z,72.23
2022-11-19T14:54:48.008Z,72.43
2022-11-19T14:58:23.298Z,72.59
2022-11-19T15:02:03.416Z,72.65
2022-11-19T15:05:34.812Z,72.57
2022-11-19T15:09:02.460Z,72.73
2022-11-19T15:12:47.433Z,72.60
2022-11-19T15:16:17.251Z,72.60
2022-11-19T15:19:52.374Z,72.82
2022-11-19T15:23:26.152Z,72.76
2022-11-19T15:26:57.714Z,72.81
2022-11-19T15:30:29.400Z,72.76
2022-11-19T15:34:38.542Z,72.90
2022-11-19T15:38:29.939Z,72.94
2022-11-19T15:42:04.232Z,72.91
2022-11-19T15:45:38.901Z,72.96
2022-11-19T15:49:14.410Z,72.81
2022-11-19T15:52:41.460Z,72.87
2022-11-19T15:56:16.218Z,72.91
2022-11-19T15:59:47.955Z,72.96
2022-11-19T16:03:16.043Z,72.86
2022-11-19T16:06:48.534Z,73.04
2022-11-19T16:10:18.441Z,73.13
2022-11-19T16:14:10.899Z,73.09
2022-11-19T16:17:44.632Z,73.28
2022-11-19T16:21:15.523Z,73.21
2022-11-19T16:25:00.233Z,73.36
2022-11-19T16:28:31.710Z,73.45
2022-11-19T16:32:02.939Z,73.51
2022-11-19T16:35:34.737Z,73.51
2022-11-19T16:39:01.883Z,73.35
2022-11-19T16:42:31.237Z,73.67
2022-11-19T16:46:02.625Z,73.63
2022-11-19T16:49:43.342Z,73.53
2022-11-19T16:53:11.036Z,73.42
2022-11-19T16:56:47.193Z,73.48
2022-11-19T17:00:21.696Z,73.29
2022-11-19T17:03:58.805Z,73.46
2022-11-19T17:07:36.583Z,73.53
2022-11-19T17:11:41.859Z,73.57
2022-11-19T17:15:41.188Z,73.47
2022-11-19T17:19:21.764Z,73.47
2022-11-19T17:22:53.961Z,73.51
2022-11-19T17:26:31.738Z,73.51
2022-11-19T17:30:09.609Z,73.35
2022-11-19T17:34:01.940Z,73.71
2022-11-19T17:37:31.547Z,73.97
2022-11-19T17:41:08.308Z,73.79
2022-11-19T17:44:42.014Z,73.96
2022-11-19T17:48:21.855Z,74.03
2022-11-19T17:51:56.075Z,74.16
2022-11-19T17:55:30.068Z,74.00
2022-11-19T17:58:59.972Z,74.15
2022-11-19T18:02:31.894Z,74.26
2022-11-19T18:06:03.596Z,74.09
2022-11-19T18:09:34.944Z,73.77
2022-11-19T18:13:03.980Z,73.95
2022-11-19T18:16:38.489Z,73.89
2022-11-19T18:20:20.409Z,74.02
2022-11-19T18:24:04.545Z,73.97
2022-11-19T18:27:38.917Z,73.89
2022-11-19T18:31:22.885Z,73.96
2022-11-19T18:34:50.518Z,74.08
2022-11-19T18:38:32.307Z,74.20
2022-11-19T18:42:00.824Z,74.13
2022-11-19T18:45:30.905Z,74.18
2022-11-19T18:49:06.454Z,74.18
2022-11-19T18:52:47.355Z,74.41
2022-11-19T18:56:21.531Z,74.41
2022-11-19T18:59:51.461Z,74.30
2022-11-19T19:03:23.474Z,74.55
2022-11-19T19:06:57.909Z,74.52
2022-11-19T19:10:26.040Z,74.20
2022-11-19T19:13:56.225Z,74.42
2022-11-19T19:17:27.614Z,74.15
2022-11-19T19:20:56.591Z,74.15
2022-11-19T19:24:27.126Z,74.14
2022-11-19T19:27:57.217Z,74.25
2022-11-19T19:31:27.657Z,74.19
2022-11-19T19:34:57.196Z,74.10
2022-11-19T19:38:24.891Z,74.02
2022-11-19T19:41:54.997Z,74.20
2022-11-19T19:45:25.437Z,74.21
2022-11-19T19:48:55.912Z,74.43
2022-11-19T19:52:23.042Z,74.31
2022-11-19T19:55:54.764Z,74.38
2022-11-19T19:59:22.019Z,74.50
2022-11-19T20:02:54.361Z,74.41
2022-11-19T20:06:27.220Z,74.52
2022-11-19T20:09:55.162Z,74.38
2022-11-19T20:13:34.306Z,74.42
2022-11-19T20:17:06.264Z,74.52
2022-11-19T20:20:36.927Z,74.33
2022-11-19T20:24:13.101Z,74.41
2022-11-19T20:27:52.072Z,74.37
2022-11-19T20:31:25.223Z,74.19
2022-11-19T20:34:58.808Z,74.20
2022-11-19T20:38:44.452Z,74.06
2022-11-19T20:42:29.600Z,73.94
2022-11-19T20:46:16.916Z,74.11
2022-11-19T20:49:53.467Z,74.00
2022-11-19T20:53:25.746Z,73.89
2022-11-19T20:57:03.197Z,73.95
2022-11-19T21:01:03.340Z,73.97
2022-11-19T21:04:39.295Z,74.14
2022-11-19T21:08:08.699Z,74.16
2022-11-19T21:11:39.721Z,74.22
2022-11-19T21:15:12.072Z,74.12
2022-11-19T21:18:45.015Z,74.32
2022-11-19T21:22:15.711Z,74.40
2022-11-19T21:25:43.747Z,74.40
2022-11-19T21:29:13.372Z,74.33
2022-11-19T21:32:45.858Z,74.33
2022-11-19T21:36:20.626Z,74.43
2022-11-19T21:39:48.024Z,74.34
2022-11-19T21:43:17.343Z,74.23
2022-11-19T21:46:44.814Z,74.26
2022-11-19T21:50:13.008Z,74.18
2022-11-19T21:53:42.503Z,74.11
2022-11-19T21:57:19.185Z,74.17
2022-11-19T22:00:49.980Z,74.21
2022-11-19T22:04:19.052Z,74.09
2022-11-19T22:07:50.367Z,74.21
2022-11-19T22:11:35.104Z,74.21
2022-11-19T22:15:12.123Z,74.18
2022-11-19T22:18:43.929Z,74.30
2022-11-19T22:22:17.528Z,74.39
2022-11-19T22:25:50.358Z,74.49
2022-11-19T22:29:22.022Z,74.61
2022-11-19T22:32:54.602Z,74.56
2022-11-19T22:36:26.611Z,74.60
2022-11-19T22:39:58.500Z,74.71
2022-11-19T22:43:42.561Z,74.62
2022-11-19T22:47:11.939Z,74.70
2022-11-19T22:50:44.356Z,74.50
2022-11-19T22:54:16.640Z,74.61
2022-11-19T22:57:46.147Z,74.51
2022-11-19T23:01:20.005Z,74.50
2022-11-19T23:04:47.033Z,74.51
2022-11-19T23:08:14.650Z,74.44
2022-11-19T23:11:59.135Z,74.37
2022-11-19T23:15:28.469Z,74.46
2022-11-19T23:18:55.794Z,74.54
2022-11-19T23:22:25.062Z,74.45
2022-11-19T23:25:56.946Z,74.53
2022-11-19T23:29:24.285Z,74.54
2022-11-19T23:32:56.093Z,74.74
2022-11-19T23:36:28.118Z,74.77
2022-11-19T23:39:56.181Z,74.61
2022-11-19T23:43:22.640Z,74.75
2022-11-19T23:46:49.804Z,74.77
2022-11-19T23:50:19.560Z,74.78
2022-11-19T23:53:46.618Z,74.87
2022-11-19T23:57:13.894Z,74.92
